sensor_id;sensor_type;location;lat;lon;timestamp;P1;durP1;ratioP1;P2;durP2;ratioP2
22068;SDS011;13887;57.196;-2.100;2023-12-20T19:42:22;13.63;;;13.23;;
22068;SDS011;13887;57.196;-2.100;2023-12-20T19:44:53;13.40;;;13.00;;
22068;SDS011;13887;57.196;-2.100;2023-12-20T19:47:21;13.67;;;13.27;;
22068;SDS011;13887;57.196;-2.100;2023-12-20T19:49:49;13.30;;;12.90;;
22068;SDS011;13887;57.196;-2.100;2023-12-20T19:52:16;13.60;;;13.20;;
22068;SDS011;13887;57.196;-2.100;2023-12-20T19:54:43;13.43;;;13.03;;
22068;SDS011;13887;57.196;-2.100;2023-12-20T19:57:11;13.37;;;12.97;;
22068;SDS011;13887;57.196;-2.100;2023-12-20T19:59:41;13.57;;;13.17;;
22068;SDS011;13887;57.196;-2.100;2023-12-20T20:02:09;12.90;;;12.50;;
22068;SDS011;13887;57.196;-2.100;2023-12-20T20:04:36;13.60;;;13.20;;
22068;SDS011;13887;57.196;-2.100;2023-12-20T20:07:03;12.97;;;12.57;;
22068;SDS011;13887;57.196;-2.100;2023-12-20T20:09:36;13.13;;;12.73;;
22068;SDS011;13887;57.196;-2.100;2023-12-20T20:12:03;12.77;;;12.37;;
22068;SDS011;13887;57.196;-2.100;2023-12-20T20:14:31;13.07;;;12.67;;
22068;SDS011;13887;57.196;-2.100;2023-12-20T20:16:59;12.33;;;11.93;;
22068;SDS011;13887;57.196;-2.100;2023-12-20T20:19:28;13.03;;;12.63;;
22068;SDS011;13887;57.196;-2.100;2023-12-20T20:21:55;13.20;;;12.80;;
22068;SDS011;13887;57.196;-2.100;2023-12-20T20:24:23;13.27;;;12.87;;
22068;SDS011;13887;57.196;-2.100;2023-12-20T20:26:51;13.63;;;13.17;;
22068;SDS011;13887;57.196;-2.100;2023-12-20T20:29:18;13.20;;;12.80;;
22068;SDS011;13887;57.196;-2.100;2023-12-20T20:31:45;13.43;;;13.03;;
22068;SDS011;13887;57.196;-2.100;2023-12-20T20:34:13;13.70;;;13.20;;
22068;SDS011;13887;57.196;-2.100;2023-12-20T20:36:40;13.30;;;12.90;;
22068;SDS011;13887;57.196;-2.100;2023-12-20T20:39:07;13.40;;;13.00;;
22068;SDS011;13887;57.196;-2.100;2023-12-20T20:41:34;12.80;;;12.40;;
22068;SDS011;13887;57.196;-2.100;2023-12-20T20:44:02;12.80;;;12.40;;
22068;SDS011;13887;57.196;-2.100;2023-12-20T20:46:29;13.03;;;12.63;;
22068;SDS011;13887;57.196;-2.100;2023-12-20T20:48:57;12.90;;;12.50;;
22068;SDS011;13887;57.196;-2.100;2023-12-20T20:51:25;13.03;;;12.63;;
22068;SDS011;13887;57.196;-2.100;2023-12-20T20:53:52;13.13;;;12.73;;
22068;SDS011;13887;57.196;-2.100;2023-12-20T20:56:34;12.80;;;12.40;;
22068;SDS011;13887;57.196;-2.100;2023-12-20T20:59:02;12.43;;;12.03;;
22068;SDS011;13887;57.196;-2.100;2023-12-20T21:01:29;13.10;;;12.70;;
22068;SDS011;13887;57.196;-2.100;2023-12-20T21:03:58;12.90;;;12.50;;
22068;SDS011;13887;57.196;-2.100;2023-12-20T21:06:26;12.63;;;12.23;;
22068;SDS011;13887;57.196;-2.100;2023-12-20T21:08:56;12.40;;;12.00;;
22068;SDS011;13887;57.196;-2.100;2023-12-20T21:11:24;12.40;;;12.00;;
22068;SDS011;13887;57.196;-2.100;2023-12-20T21:13:51;12.53;;;12.13;;
22068;SDS011;13887;57.196;-2.100;2023-12-20T21:16:19;12.57;;;12.17;;
22068;SDS011;13887;57.196;-2.100;2023-12-20T21:18:46;12.87;;;12.47;;
22068;SDS011;13887;57.196;-2.100;2023-12-20T21:21:14;12.77;;;12.37;;
22068;SDS011;13887;57.196;-2.100;2023-12-20T21:23:41;12.70;;;12.30;;
22068;SDS011;13887;57.196;-2.100;2023-12-20T21:26:09;12.83;;;12.43;;
22068;SDS011;13887;57.196;-2.100;2023-12-20T21:28:38;12.70;;;12.30;;
22068;SDS011;13887;57.196;-2.100;2023-12-20T21:31:05;13.13;;;12.73;;
22068;SDS011;13887;57.196;-2.100;2023-12-20T21:33:33;13.27;;;12.87;;
22068;SDS011;13887;57.196;-2.100;2023-12-20T21:36:00;13.03;;;12.63;;
22068;SDS011;13887;57.196;-2.100;2023-12-20T21:38:28;12.70;;;12.30;;
22068;SDS011;13887;57.196;-2.100;2023-12-20T21:40:55;13.10;;;12.70;;
22068;SDS011;13887;57.196;-2.100;2023-12-20T21:43:23;12.90;;;12.50;;
22068;SDS011;13887;57.196;-2.100;2023-12-20T21:45:50;12.77;;;12.37;;
22068;SDS011;13887;57.196;-2.100;2023-12-20T21:48:18;12.60;;;12.20;;
22068;SDS011;13887;57.196;-2.100;2023-12-20T21:50:45;13.13;;;12.73;;
22068;SDS011;13887;57.196;-2.100;2023-12-20T21:53:12;13.20;;;12.80;;
22068;SDS011;13887;57.196;-2.100;2023-12-20T21:55:39;13.50;;;13.10;;
22068;SDS011;13887;57.196;-2.100;2023-12-20T21:58:07;13.20;;;12.80;;
22068;SDS011;13887;57.196;-2.100;2023-12-20T22:00:35;13.70;;;13.20;;
22068;SDS011;13887;57.196;-2.100;2023-12-20T22:03:02;13.43;;;12.93;;
22068;SDS011;13887;57.196;-2.100;2023-12-20T22:05:38;14.00;;;13.50;;
22068;SDS011;13887;57.196;-2.100;2023-12-20T22:08:06;13.70;;;13.20;;
22068;SDS011;13887;57.196;-2.100;2023-12-20T22:10:34;13.90;;;13.40;;
22068;SDS011;13887;57.196;-2.100;2023-12-20T22:13:01;14.20;;;13.70;;
22068;SDS011;13887;57.196;-2.100;2023-12-20T22:15:28;14.30;;;13.80;;
22068;SDS011;13887;57.196;-2.100;2023-12-20T22:17:56;13.77;;;13.27;;
22068;SDS011;13887;57.196;-2.100;2023-12-20T22:20:23;13.90;;;13.40;;
22068;SDS011;13887;57.196;-2.100;2023-12-20T22:22:50;13.83;;;13.33;;
22068;SDS011;13887;57.196;-2.100;2023-12-20T22:25:18;13.63;;;13.13;;
22068;SDS011;13887;57.196;-2.100;2023-12-20T22:27:45;13.87;;;13.37;;
22068;SDS011;13887;57.196;-2.100;2023-12-20T22:30:13;14.00;;;13.50;;
22068;SDS011;13887;57.196;-2.100;2023-12-20T22:32:40;14.03;;;13.53;;
22068;SDS011;13887;57.196;-2.100;2023-12-20T22:35:08;13.50;;;13.00;;
22068;SDS011;13887;57.196;-2.100;2023-12-20T22:37:36;14.07;;;13.57;;
22068;SDS011;13887;57.196;-2.100;2023-12-20T22:40:03;14.23;;;13.73;;
22068;SDS011;13887;57.196;-2.100;2023-12-20T22:42:31;13.80;;;13.30;;
22068;SDS011;13887;57.196;-2.100;2023-12-20T22:44:58;13.53;;;13.03;;
22068;SDS011;13887;57.196;-2.100;2023-12-20T22:47:26;14.33;;;13.83;;
22068;SDS011;13887;57.196;-2.100;2023-12-20T22:49:53;14.17;;;13.67;;
22068;SDS011;13887;57.196;-2.100;2023-12-20T22:52:20;14.00;;;13.50;;
22068;SDS011;13887;57.196;-2.100;2023-12-20T22:54:48;13.67;;;13.17;;
22068;SDS011;13887;57.196;-2.100;2023-12-20T22:57:15;13.70;;;13.20;;
22068;SDS011;13887;57.196;-2.100;2023-12-20T22:59:43;14.33;;;13.83;;
22068;SDS011;13887;57.196;-2.100;2023-12-20T23:02:11;13.80;;;13.30;;
22068;SDS011;13887;57.196;-2.100;2023-12-20T23:04:38;13.50;;;13.00;;
22068;SDS011;13887;57.196;-2.100;2023-12-20T23:07:07;13.60;;;13.10;;
22068;SDS011;13887;57.196;-2.100;2023-12-20T23:09:34;13.93;;;13.43;;
22068;SDS011;13887;57.196;-2.100;2023-12-20T23:12:02;14.00;;;13.50;;
22068;SDS011;13887;57.196;-2.100;2023-12-20T23:14:29;14.10;;;13.60;;
22068;SDS011;13887;57.196;-2.100;2023-12-20T23:16:57;13.93;;;13.43;;
22068;SDS011;13887;57.196;-2.100;2023-12-20T23:19:24;13.77;;;13.27;;
22068;SDS011;13887;57.196;-2.100;2023-12-20T23:21:51;14.43;;;13.93;;
22068;SDS011;13887;57.196;-2.100;2023-12-20T23:24:19;13.97;;;13.47;;
22068;SDS011;13887;57.196;-2.100;2023-12-20T23:26:46;14.00;;;13.50;;
22068;SDS011;13887;57.196;-2.100;2023-12-20T23:29:13;14.20;;;13.70;;
22068;SDS011;13887;57.196;-2.100;2023-12-20T23:31:41;14.03;;;13.53;;
22068;SDS011;13887;57.196;-2.100;2023-12-20T23:34:08;14.00;;;13.50;;
22068;SDS011;13887;57.196;-2.100;2023-12-20T23:36:35;14.30;;;13.80;;
22068;SDS011;13887;57.196;-2.100;2023-12-20T23:39:02;14.00;;;13.50;;
22068;SDS011;13887;57.196;-2.100;2023-12-20T23:41:30;13.90;;;13.40;;
22068;SDS011;13887;57.196;-2.100;2023-12-20T23:43:57;14.10;;;13.60;;
22068;SDS011;13887;57.196;-2.100;2023-12-20T23:46:24;13.93;;;13.43;;
22068;SDS011;13887;57.196;-2.100;2023-12-20T23:48:52;13.90;;;13.40;;
22068;SDS011;13887;57.196;-2.100;2023-12-20T23:51:19;13.73;;;13.23;;
22068;SDS011;13887;57.196;-2.100;2023-12-20T23:53:46;13.70;;;13.20;;
22068;SDS011;13887;57.196;-2.100;2023-12-20T23:56:14;14.20;;;13.70;;
22068;SDS011;13887;57.196;-2.100;2023-12-20T23:58:56;14.23;;;13.73;;
